createdAt,value
2023-03-27T00:00:13.387Z,98249.47
2023-03-27T00:01:46.773Z,98241.75
2023-03-27T00:03:20.093Z,98238.31
2023-03-27T00:04:54.765Z,98240.03
2023-03-27T00:06:29.612Z,98240.03
2023-03-27T00:08:01.937Z,98246.47
2023-03-27T00:09:37.227Z,98235.34
2023-03-27T00:11:10.337Z,98237.50
2023-03-27T00:12:44.375Z,98229.19
2023-03-27T00:14:18.173Z,98232.94
2023-03-27T00:15:53.920Z,98216.72
2023-03-27T00:17:27.619Z,98234.78
2023-03-27T00:19:00.842Z,98234.72
2023-03-27T00:20:37.404Z,98235.59
2023-03-27T00:22:11.931Z,98233.03
2023-03-27T00:23:45.282Z,98217.50
2023-03-27T00:25:18.791Z,98204.50
2023-03-27T00:26:51.304Z,98214.41
2023-03-27T00:28:27.130Z,98209.56
2023-03-27T00:30:00.242Z,98221.63
2023-03-27T00:31:33.707Z,98217.94
2023-03-27T00:33:10.732Z,98207.00
2023-03-27T00:34:42.873Z,98210.06
2023-03-27T00:36:16.306Z,98207.63
2023-03-27T00:37:50.897Z,98209.63
2023-03-27T00:39:23.944Z,98208.03
2023-03-27T00:40:57.794Z,98205.19
2023-03-27T00:42:30.308Z,98199.16
2023-03-27T00:44:04.386Z,98196.41
2023-03-27T00:45:37.882Z,98194.47
2023-03-27T00:47:12.984Z,98192.56
2023-03-27T00:48:51.771Z,98191.47
2023-03-27T00:50:29.118Z,98184.25
2023-03-27T00:52:04.206Z,98185.94
2023-03-27T00:53:39.275Z,98178.63
2023-03-27T00:55:16.185Z,98172.41
2023-03-27T00:56:50.015Z,98177.66
2023-03-27T00:58:27.847Z,98156.69
2023-03-27T01:00:09.586Z,98161.84
2023-03-27T01:01:45.098Z,98151.13
2023-03-27T01:03:19.297Z,98142.38
2023-03-27T01:04:54.485Z,98146.00
2023-03-27T01:06:28.794Z,98134.13
2023-03-27T01:08:03.671Z,98134.84
2023-03-27T01:09:39.845Z,98139.25
2023-03-27T01:11:22.087Z,98128.97
2023-03-27T01:13:05.636Z,98127.47
2023-03-27T01:14:47.652Z,98137.09
2023-03-27T01:16:27.538Z,98118.84
2023-03-27T01:18:22.864Z,98122.56
2023-03-27T01:20:14.290Z,98130.97
2023-03-27T01:22:15.671Z,98127.00
2023-03-27T01:24:14.628Z,98126.03
2023-03-27T01:26:13.699Z,98121.16
2023-03-27T01:28:17.423Z,98113.97
2023-03-27T01:30:09.562Z,98111.13
2023-03-27T01:32:01.695Z,98116.34
2023-03-27T01:33:59.551Z,98107.53
2023-03-27T01:36:04.363Z,98106.84
2023-03-27T01:37:54.814Z,98101.59
2023-03-27T01:39:43.268Z,98089.53
2023-03-27T01:41:22.211Z,98088.56
2023-03-27T01:43:04.008Z,98084.28
2023-03-27T01:44:47.120Z,98089.53
2023-03-27T01:46:24.821Z,98087.00
2023-03-27T01:48:02.132Z,98085.34
2023-03-27T01:49:40.227Z,98081.97
2023-03-27T01:51:20.031Z,98076.03
2023-03-27T01:53:00.217Z,98063.88
2023-03-27T01:54:36.272Z,98074.22
2023-03-27T01:56:18.680Z,98064.78
2023-03-27T01:58:00.723Z,98069.09
2023-03-27T01:59:39.622Z,98069.94
2023-03-27T02:01:18.193Z,98070.69
2023-03-27T02:02:58.121Z,98081.88
2023-03-27T02:04:38.871Z,98085.44
2023-03-27T02:06:17.818Z,98075.94
2023-03-27T02:07:55.748Z,98074.53
2023-03-27T02:09:34.585Z,98063.09
2023-03-27T02:11:08.391Z,98062.34
2023-03-27T02:12:47.387Z,98057.22
2023-03-27T02:14:24.634Z,98056.44
2023-03-27T02:16:00.981Z,98054.94
2023-03-27T02:17:39.320Z,98050.38
2023-03-27T02:19:21.055Z,98053.69
2023-03-27T02:20:55.451Z,98048.34
2023-03-27T02:22:37.616Z,98045.63
2023-03-27T02:24:11.790Z,98044.72
2023-03-27T02:25:47.090Z,98038.84
2023-03-27T02:27:30.393Z,98042.25
2023-03-27T02:29:30.384Z,98043.13
2023-03-27T02:31:32.425Z,98053.69
2023-03-27T02:33:16.707Z,98032.06
2023-03-27T02:35:18.198Z,98026.81
2023-03-27T02:36:59.051Z,98014.78
2023-03-27T02:38:54.043Z,98023.34
2023-03-27T02:40:40.127Z,98014.03
2023-03-27T02:42:41.265Z,98015.63
2023-03-27T02:44:22.037Z,98012.22
2023-03-27T02:46:11.420Z,98014.13
2023-03-27T02:47:50.317Z,98010.72
2023-03-27T02:49:28.956Z,98005.38
2023-03-27T02:51:05.853Z,97975.53
2023-03-27T02:52:43.743Z,97996.94
2023-03-27T02:54:21.271Z,97998.84
2023-03-27T02:55:58.638Z,97991.72
2023-03-27T02:57:34.376Z,98001.94
2023-03-27T02:59:44.990Z,97996.38
2023-03-27T03:01:20.393Z,97990.91
2023-03-27T03:03:18.860Z,97992.34
2023-03-27T03:05:07.611Z,97996.56
2023-03-27T03:06:47.179Z,97985.31
2023-03-27T03:08:21.786Z,97976.44
2023-03-27T03:09:54.549Z,97974.84
2023-03-27T03:11:28.062Z,97981.53
2023-03-27T03:13:01.907Z,97976.28
2023-03-27T03:14:40.060Z,97968.34
2023-03-27T03:16:13.748Z,97971.72
2023-03-27T03:17:47.142Z,97969.25
2023-03-27T03:19:19.570Z,97959.00
2023-03-27T03:20:54.239Z,97959.81
2023-03-27T03:22:27.815Z,97951.94
2023-03-27T03:24:01.347Z,97950.09
2023-03-27T03:25:34.769Z,97953.81
2023-03-27T03:27:08.433Z,97945.31
2023-03-27T03:29:00.640Z,97939.41
2023-03-27T03:30:43.472Z,97942.81
2023-03-27T03:32:17.312Z,97933.59
2023-03-27T03:33:51.867Z,97926.44
2023-03-27T03:35:25.038Z,97936.78
2023-03-27T03:36:59.423Z,97930.63
2023-03-27T03:38:38.198Z,97929.72
2023-03-27T03:40:19.933Z,97914.88
2023-03-27T03:41:55.000Z,97918.16
2023-03-27T03:43:30.370Z,97916.38
2023-03-27T03:45:04.300Z,97917.09
2023-03-27T03:46:39.114Z,97918.81
2023-03-27T03:48:12.514Z,97910.06
2023-03-27T03:49:45.979Z,97906.16
2023-03-27T03:51:19.622Z,97905.69
2023-03-27T03:52:52.967Z,97900.69
2023-03-27T03:54:26.392Z,97888.50
2023-03-27T03:55:59.913Z,97888.50
2023-03-27T03:57:32.462Z,97883.16
2023-03-27T03:59:21.814Z,97883.88
2023-03-27T04:01:15.668Z,97887.03
2023-03-27T04:02:57.127Z,97883.47
2023-03-27T04:04:30.414Z,97879.88
2023-03-27T04:06:11.322Z,97882.59
2023-03-27T04:07:45.841Z,97889.66
2023-03-27T04:09:42.071Z,97866.31
2023-03-27T04:11:21.806Z,97862.00
2023-03-27T04:13:09.321Z,97863.81
2023-03-27T04:14:46.914Z,97859.47
2023-03-27T04:16:39.949Z,97856.97
2023-03-27T04:18:33.108Z,97858.72
2023-03-27T04:20:10.335Z,97862.31
2023-03-27T04:21:43.783Z,97850.03
2023-03-27T04:23:18.625Z,97849.13
2023-03-27T04:24:53.886Z,97847.06
2023-03-27T04:26:28.467Z,97838.19
2023-03-27T04:28:34.827Z,97849.31
2023-03-27T04:30:25.784Z,97844.72
2023-03-27T04:32:19.370Z,97851.31
2023-03-27T04:34:20.472Z,97852.78
2023-03-27T04:36:15.854Z,97849.00
2023-03-27T04:38:03.013Z,97839.41
2023-03-27T04:39:58.555Z,97848.78
2023-03-27T04:41:32.827Z,97850.50
2023-03-27T04:43:06.345Z,97850.28
2023-03-27T04:44:39.985Z,97851.91
2023-03-27T04:46:13.670Z,97842.16
2023-03-27T04:47:49.434Z,97841.16
2023-03-27T04:49:24.720Z,97829.81
2023-03-27T04:51:03.454Z,97836.03
2023-03-27T04:52:39.567Z,97836.88
2023-03-27T04:54:14.164Z,97834.66
2023-03-27T04:55:51.997Z,97832.84
2023-03-27T04:57:27.861Z,97824.09
2023-03-27T04:59:06.141Z,97817.47
2023-03-27T05:00:39.808Z,97805.41
2023-03-27T05:02:54.915Z,97810.25
2023-03-27T05:04:49.989Z,97784.50
2023-03-27T05:06:26.951Z,97803.03
2023-03-27T05:08:00.224Z,97800.19
2023-03-27T05:09:33.434Z,97801.53
2023-03-27T05:11:07.868Z,97799.59
2023-03-27T05:12:50.545Z,97802.63
2023-03-27T05:14:24.936Z,97806.66
2023-03-27T05:16:01.847Z,97805.69
2023-03-27T05:17:42.012Z,97815.25
2023-03-27T05:19:15.554Z,97805.84
2023-03-27T05:20:57.274Z,97801.00
2023-03-27T05:22:30.896Z,97802.22
2023-03-27T05:24:13.959Z,97805.75
2023-03-27T05:26:00.064Z,97801.00
2023-03-27T05:27:50.381Z,97799.06
2023-03-27T05:29:23.862Z,97797.75
2023-03-27T05:31:06.360Z,97800.28
2023-03-27T05:32:52.133Z,97799.41
2023-03-27T05:34:34.847Z,97799.56
2023-03-27T05:36:13.290Z,97787.59
2023-03-27T05:37:48.905Z,97789.19
2023-03-27T05:39:39.430Z,97783.53
2023-03-27T05:41:16.245Z,97785.56
2023-03-27T05:42:54.322Z,97785.47
2023-03-27T05:44:28.835Z,97791.06
2023-03-27T05:46:02.804Z,97792.94
2023-03-27T05:47:45.203Z,97788.22
2023-03-27T05:49:18.930Z,97777.56
2023-03-27T05:50:57.769Z,97775.84
2023-03-27T05:52:32.537Z,97778.19
2023-03-27T05:54:06.758Z,97764.22
2023-03-27T05:56:02.477Z,97775.38
2023-03-27T05:57:44.004Z,97765.59
2023-03-27T05:59:17.942Z,97756.63
2023-03-27T06:00:52.461Z,97745.34
2023-03-27T06:02:27.892Z,97750.88
2023-03-27T06:04:09.433Z,97743.81
2023-03-27T06:06:10.889Z,97746.94
2023-03-27T06:07:47.090Z,97746.69
2023-03-27T06:09:20.716Z,97746.88
2023-03-27T06:11:15.730Z,97734.56
2023-03-27T06:13:01.361Z,97735.78
2023-03-27T06:14:41.467Z,97734.97
2023-03-27T06:16:33.172Z,97731.56
2023-03-27T06:18:06.077Z,97727.28
2023-03-27T06:19:42.881Z,97716.50
2023-03-27T06:21:16.237Z,97727.09
2023-03-27T06:22:53.159Z,97718.38
2023-03-27T06:24:29.994Z,97720.78
2023-03-27T06:26:05.014Z,97718.94
2023-03-27T06:27:39.310Z,97704.94
2023-03-27T06:29:13.361Z,97716.47
2023-03-27T06:30:52.669Z,97715.91
2023-03-27T06:32:31.989Z,97697.28
2023-03-27T06:34:05.788Z,97701.16
2023-03-27T06:36:02.994Z,97694.50
2023-03-27T06:37:37.942Z,97679.97
2023-03-27T06:39:12.501Z,97685.47
2023-03-27T06:40:53.558Z,97686.41
2023-03-27T06:42:27.496Z,97680.59
2023-03-27T06:44:26.502Z,97671.63
2023-03-27T06:46:08.418Z,97674.19
2023-03-27T06:48:21.523Z,97674.00
2023-03-27T06:49:57.250Z,97682.38
2023-03-27T06:51:31.461Z,97679.47
2023-03-27T06:53:09.954Z,97677.78
2023-03-27T06:54:53.255Z,97671.16
2023-03-27T06:56:26.612Z,97654.16
2023-03-27T06:58:35.264Z,97641.06
2023-03-27T07:00:13.057Z,97637.47
2023-03-27T07:02:16.240Z,97641.06
2023-03-27T07:03:58.195Z,97628.78
2023-03-27T07:05:51.320Z,97636.38
2023-03-27T07:07:25.004Z,97631.84
2023-03-27T07:08:58.286Z,97618.41
2023-03-27T07:10:33.905Z,97618.81
2023-03-27T07:12:09.224Z,97606.72
2023-03-27T07:13:44.302Z,97607.56
2023-03-27T07:15:26.742Z,97601.25
2023-03-27T07:17:00.459Z,97594.66
2023-03-27T07:18:42.203Z,97589.38
2023-03-27T07:20:15.337Z,97580.47
2023-03-27T07:21:48.575Z,97567.47
2023-03-27T07:23:22.716Z,97576.09
2023-03-27T07:25:04.775Z,97582.44
2023-03-27T07:26:45.525Z,97575.16
2023-03-27T07:28:27.930Z,97586.59
2023-03-27T07:30:01.653Z,97590.03
2023-03-27T07:33:17.526Z,97575.78
2023-03-27T07:34:51.572Z,97571.78
2023-03-27T07:36:53.325Z,97567.97
2023-03-27T07:38:27.126Z,97562.88
2023-03-27T07:40:29.492Z,97556.69
2023-03-27T07:42:38.286Z,97539.41
2023-03-27T07:44:13.684Z,97549.22
2023-03-27T07:45:58.157Z,97532.56
2023-03-27T07:47:32.947Z,97522.25
2023-03-27T07:49:09.995Z,97518.44
2023-03-27T07:50:43.961Z,97514.59
2023-03-27T07:52:20.605Z,97518.09
2023-03-27T07:54:04.475Z,97512.91
2023-03-27T07:55:42.867Z,97506.91
2023-03-27T07:57:17.010Z,97508.38
